Time,TemperatureF,DewpointF,PressureIn,WindDirection,WindDirectionDegrees,WindSpeedMPH,WindSpeedGustMPH,Humidity,HourlyPrecipIn,Conditions,Clouds,dailyrainin,SoftwareType,DateUTC
2013-02-25 00:02:00,29.0,26.0,30.14,East,98,0.0,1.0,87,0.00,,,0.03,,2013-02-25 06:02:00,
2013-02-25 00:11:00,29.0,26.0,30.14,East,98,0.0,1.0,87,0.00,,,0.03,,2013-02-25 06:11:00,
2013-02-25 00:21:00,29.0,26.0,30.14,East,97,0.0,3.0,87,0.00,,,0.03,,2013-02-25 06:21:00,
2013-02-25 00:31:00,28.0,25.0,30.14,East,97,0.0,1.0,88,0.00,,,0.03,,2013-02-25 06:31:00,
2013-02-25 00:42:00,28.0,25.0,30.14,East,97,0.0,1.0,88,0.00,,,0.03,,2013-02-25 06:42:00,
2013-02-25 00:52:00,28.0,25.0,30.13,East,96,0.0,2.0,89,0.00,,,0.03,,2013-02-25 06:52:00,
2013-02-25 01:01:00,28.0,25.0,30.14,ESE,102,0.0,3.0,89,0.00,,,0.03,,2013-02-25 07:01:00,
2013-02-25 01:11:00,28.0,25.0,30.14,ESE,115,1.0,3.0,89,0.00,,,0.03,,2013-02-25 07:11:00,
2013-02-25 01:21:00,28.0,25.0,30.14,ESE,115,1.0,3.0,89,0.00,,,0.03,,2013-02-25 07:21:00,
2013-02-25 01:31:00,28.0,25.0,30.14,ESE,108,2.0,4.0,88,0.00,,,0.03,,2013-02-25 07:31:00,
2013-02-25 01:41:00,28.0,25.0,30.14,ESE,108,2.0,4.0,88,0.00,,,0.03,,2013-02-25 07:41:00,
2013-02-25 01:52:00,28.0,25.0,30.14,ESE,113,1.0,7.0,88,0.00,,,0.03,,2013-02-25 07:52:00,
2013-02-25 02:01:00,28.0,25.0,30.14,ESE,105,2.0,5.0,88,0.00,,,0.03,,2013-02-25 08:01:00,
2013-02-25 02:11:00,28.0,25.0,30.14,ESE,105,2.0,5.0,88,0.00,,,0.03,,2013-02-25 08:11:00,
2013-02-25 02:21:00,28.0,25.0,30.14,ESE,119,1.0,4.0,88,0.00,,,0.03,,2013-02-25 08:21:00,
2013-02-25 02:31:00,28.0,25.0,30.14,ESE,116,2.0,7.0,88,0.00,,,0.03,,2013-02-25 08:31:00,
2013-02-25 02:41:00,28.0,25.0,30.14,ESE,116,2.0,7.0,88,0.00,,,0.03,,2013-02-25 08:41:00,
2013-02-25 02:52:00,28.0,25.0,30.14,ESE,106,1.0,5.0,88,0.00,,,0.03,,2013-02-25 08:52:00,
2013-02-25 03:01:00,28.0,25.0,30.14,ESE,105,1.0,4.0,88,0.00,,,0.03,,2013-02-25 09:01:00,
2013-02-25 03:12:00,28.0,25.0,30.14,ESE,105,1.0,4.0,88,0.00,,,0.03,,2013-02-25 09:12:00,
2013-02-25 03:21:00,28.0,25.0,30.14,ESE,105,2.0,4.0,88,0.00,,,0.03,,2013-02-25 09:21:00,
2013-02-25 03:31:00,28.0,25.0,30.13,SE,128,1.0,5.0,89,0.00,,,0.03,,2013-02-25 09:31:00,
2013-02-25 03:42:00,28.0,25.0,30.13,SE,128,1.0,5.0,89,0.00,,,0.03,,2013-02-25 09:42:00,
2013-02-25 03:52:00,28.0,25.0,30.14,ESE,118,3.0,6.0,90,0.00,,,0.03,,2013-02-25 09:52:00,
2013-02-25 04:01:00,27.0,24.0,30.13,ESE,113,2.0,5.0,90,0.00,,,0.03,,2013-02-25 10:01:00,
2013-02-25 04:11:00,27.0,24.0,30.13,ESE,113,2.0,5.0,90,0.00,,,0.03,,2013-02-25 10:11:00,
2013-02-25 04:21:00,27.0,24.0,30.13,ESE,117,2.0,5.0,90,0.00,,,0.03,,2013-02-25 10:21:00,
2013-02-25 04:31:00,27.0,25.0,30.13,SE,125,3.0,7.0,91,0.00,,,0.03,,2013-02-25 10:31:00,
2013-02-25 04:42:00,27.0,25.0,30.13,SE,125,3.0,7.0,91,0.00,,,0.03,,2013-02-25 10:42:00,
2013-02-25 04:52:00,27.0,25.0,30.14,ESE,103,3.0,7.0,91,0.00,,,0.03,,2013-02-25 10:52:00,
2013-02-25 05:01:00,28.0,25.0,30.13,ESE,108,2.0,7.0,90,0.00,,,0.03,,2013-02-25 11:01:00,
2013-02-25 05:11:00,28.0,25.0,30.13,ESE,108,2.0,7.0,90,0.00,,,0.03,,2013-02-25 11:11:00,
2013-02-25 05:21:00,28.0,25.0,30.14,ESE,102,1.0,7.0,90,0.00,,,0.03,,2013-02-25 11:21:00,
2013-02-25 05:32:00,28.0,25.0,30.15,ESE,116,2.0,5.0,90,0.00,,,0.03,,2013-02-25 11:32:00,
2013-02-25 05:42:00,28.0,25.0,30.15,ESE,116,2.0,5.0,90,0.00,,,0.03,,2013-02-25 11:42:00,
2013-02-25 05:52:00,28.0,25.0,30.15,ESE,105,2.0,6.0,89,0.00,,,0.03,,2013-02-25 11:52:00,
2013-02-25 06:02:00,28.0,25.0,30.15,SE,127,2.0,7.0,90,0.00,,,0.03,,2013-02-25 12:02:00,
2013-02-25 06:11:00,28.0,25.0,30.15,SE,127,2.0,7.0,90,0.00,,,0.03,,2013-02-25 12:11:00,
2013-02-25 06:21:00,27.0,24.0,30.14,ESE,110,2.0,7.0,90,0.00,,,0.03,,2013-02-25 12:21:00,
2013-02-25 06:32:00,27.0,24.0,30.14,ESE,104,3.0,7.0,90,0.00,,,0.03,,2013-02-25 12:32:00,
2013-02-25 06:42:00,27.0,24.0,30.14,ESE,104,3.0,7.0,90,0.00,,,0.03,,2013-02-25 12:42:00,
2013-02-25 06:55:00,27.0,24.0,30.12,ESE,107,3.0,8.0,90,0.00,,,0.03,,2013-02-25 12:55:00,
2013-02-25 07:02:00,27.0,24.0,30.12,ESE,111,3.0,8.0,90,0.00,,,0.03,,2013-02-25 13:02:00,
2013-02-25 07:12:00,27.0,24.0,30.12,ESE,111,3.0,8.0,90,0.00,,,0.03,,2013-02-25 13:12:00,
2013-02-25 07:22:00,28.0,25.0,30.12,ENE,69,2.0,7.0,89,0.00,,,0.03,,2013-02-25 13:22:00,
2013-02-25 07:32:00,29.0,26.0,30.12,ESE,109,3.0,10.0,88,0.00,,,0.03,,2013-02-25 13:32:00,
2013-02-25 07:42:00,29.0,26.0,30.12,ESE,109,3.0,10.0,88,0.00,,,0.03,,2013-02-25 13:42:00,
2013-02-25 07:52:00,30.0,27.0,30.11,ESE,119,4.0,8.0,87,0.00,,,0.03,,2013-02-25 13:52:00,
2013-02-25 08:03:00,30.0,26.0,30.11,ESE,114,5.0,10.0,86,0.00,,,0.03,,2013-02-25 14:03:00,
2013-02-25 08:17:00,30.0,26.0,30.11,ESE,114,5.0,10.0,86,0.00,,,0.03,,2013-02-25 14:17:00,
2013-02-25 08:32:00,31.0,27.0,30.12,ESE,105,5.0,10.0,86,0.00,,,0.03,,2013-02-25 14:32:00,
2013-02-25 08:42:00,31.0,27.0,30.12,ESE,105,5.0,10.0,86,0.00,,,0.03,,2013-02-25 14:42:00,
2013-02-25 08:52:00,32.0,28.0,30.13,ESE,110,5.0,13.0,86,0.00,,,0.03,,2013-02-25 14:52:00,
2013-02-25 09:02:00,33.0,29.0,30.12,SE,146,3.0,11.0,85,0.00,,,0.03,,2013-02-25 15:02:00,
2013-02-25 09:11:00,33.0,29.0,30.12,SE,146,3.0,11.0,85,0.00,,,0.03,,2013-02-25 15:11:00,
2013-02-25 09:21:00,34.0,30.0,30.11,ESE,117,3.0,10.0,85,0.00,,,0.03,,2013-02-25 15:21:00,
2013-02-25 09:32:00,34.0,29.0,30.11,ESE,110,5.0,13.0,83,0.00,,,0.03,,2013-02-25 15:32:00,
2013-02-25 09:41:00,34.0,29.0,30.11,ESE,110,5.0,13.0,83,0.00,,,0.03,,2013-02-25 15:41:00,
2013-02-25 09:52:00,35.0,30.0,30.10,ESE,109,4.0,13.0,81,0.00,,,0.03,,2013-02-25 15:52:00,
2013-02-25 10:02:00,36.0,30.0,30.10,SE,130,6.0,15.0,80,0.00,,,0.03,,2013-02-25 16:02:00,
2013-02-25 10:11:00,36.0,30.0,30.10,SE,130,6.0,15.0,80,0.00,,,0.03,,2013-02-25 16:11:00,
2013-02-25 10:21:00,37.0,31.0,30.10,ESE,106,7.0,15.0,79,0.00,,,0.03,,2013-02-25 16:21:00,
2013-02-25 10:32:00,38.0,32.0,30.11,East,92,6.0,13.0,78,0.00,,,0.03,,2013-02-25 16:32:00,
2013-02-25 10:42:00,38.0,32.0,30.11,East,92,6.0,13.0,78,0.00,,,0.03,,2013-02-25 16:42:00,
2013-02-25 10:52:00,38.0,31.0,30.12,SSE,150,9.0,17.0,75,0.00,,,0.03,,2013-02-25 16:52:00,
2013-02-25 11:01:00,39.0,32.0,30.11,ESE,107,6.0,11.0,76,0.00,,,0.03,,2013-02-25 17:01:00,
2013-02-25 11:11:00,39.0,32.0,30.11,ESE,107,6.0,11.0,76,0.00,,,0.03,,2013-02-25 17:11:00,
2013-02-25 11:21:00,39.0,32.0,30.11,ESE,103,7.0,14.0,75,0.00,,,0.03,,2013-02-25 17:21:00,
2013-02-25 11:31:00,39.0,31.0,30.11,ESE,122,7.0,14.0,73,0.00,,,0.03,,2013-02-25 17:31:00,
2013-02-25 11:41:00,39.0,31.0,30.11,ESE,122,7.0,14.0,73,0.00,,,0.03,,2013-02-25 17:41:00,
2013-02-25 11:52:00,40.0,32.0,30.11,East,95,6.0,15.0,73,0.00,,,0.03,,2013-02-25 17:52:00,
2013-02-25 12:01:00,40.0,32.0,30.10,SE,136,6.0,14.0,73,0.00,,,0.03,,2013-02-25 18:01:00,
2013-02-25 12:12:00,40.0,32.0,30.10,SE,136,6.0,14.0,73,0.00,,,0.03,,2013-02-25 18:12:00,
2013-02-25 12:21:00,40.0,32.0,30.10,ENE,71,4.0,13.0,73,0.00,,,0.02,,2013-02-25 18:21:00,
2013-02-25 12:32:00,40.0,32.0,30.09,ESE,102,6.0,12.0,72,0.00,,,0.02,,2013-02-25 18:32:00,
2013-02-25 12:41:00,40.0,32.0,30.09,ESE,102,6.0,12.0,72,0.00,,,0.02,,2013-02-25 18:41:00,
2013-02-25 12:52:00,41.0,33.0,30.08,ESE,107,6.0,11.0,72,0.00,,,0.02,,2013-02-25 18:52:00,
2013-02-25 13:01:00,41.0,33.0,30.06,East,82,4.0,10.0,74,0.00,,,0.02,,2013-02-25 19:01:00,
2013-02-25 13:11:00,41.0,33.0,30.06,East,82,4.0,10.0,74,0.00,,,0.02,,2013-02-25 19:11:00,
2013-02-25 13:21:00,41.0,33.0,30.06,ENE,70,4.0,10.0,72,0.00,,,0.01,,2013-02-25 19:21:00,
2013-02-25 13:31:00,42.0,35.0,30.07,East,85,3.0,6.0,76,0.00,,,0.01,,2013-02-25 19:31:00,
2013-02-25 13:42:00,42.0,35.0,30.07,East,85,3.0,6.0,76,0.00,,,0.01,,2013-02-25 19:42:00,
2013-02-25 13:52:00,42.0,33.0,30.06,SE,126,5.0,10.0,70,0.00,,,0.01,,2013-02-25 19:52:00,
2013-02-25 14:01:00,43.0,34.0,30.06,ENE,68,4.0,11.0,69,0.00,,,0.01,,2013-02-25 20:01:00,
2013-02-25 14:11:00,43.0,34.0,30.06,ENE,68,4.0,11.0,69,0.00,,,0.01,,2013-02-25 20:11:00,
2013-02-25 14:21:00,42.0,33.0,30.04,East,88,5.0,10.0,70,0.00,,,0.00,,2013-02-25 20:21:00,
2013-02-25 14:31:00,42.0,34.0,30.04,ENE,78,4.0,12.0,73,0.00,,,0.00,,2013-02-25 20:31:00,
2013-02-25 14:42:00,42.0,34.0,30.04,ENE,78,4.0,12.0,73,0.00,,,0.00,,2013-02-25 20:42:00,
2013-02-25 14:52:00,42.0,34.0,30.04,ENE,59,4.0,10.0,72,0.00,,,0.00,,2013-02-25 20:52:00,
2013-02-25 15:01:00,42.0,34.0,30.03,East,80,5.0,12.0,74,0.00,,,0.00,,2013-02-25 21:01:00,
2013-02-25 15:11:00,42.0,34.0,30.03,East,80,5.0,12.0,74,0.00,,,0.00,,2013-02-25 21:11:00,
2013-02-25 15:21:00,42.0,34.0,30.01,East,81,6.0,12.0,73,0.00,,,0.00,,2013-02-25 21:21:00,
2013-02-25 15:31:00,42.0,34.0,29.99,ENE,60,6.0,14.0,74,0.00,,,0.00,,2013-02-25 21:31:00,
2013-02-25 15:42:00,42.0,34.0,29.99,ENE,60,6.0,14.0,74,0.00,,,0.00,,2013-02-25 21:42:00,
2013-02-25 15:52:00,42.0,34.0,29.99,ESE,119,7.0,16.0,74,0.00,,,0.00,,2013-02-25 21:52:00,
2013-02-25 16:01:00,42.0,34.0,29.99,ESE,119,7.0,16.0,74,0.00,,,0.00,,2013-02-25 22:01:00,
2013-02-25 16:11:00,42.0,34.0,29.99,ESE,119,7.0,16.0,74,0.00,,,0.00,,2013-02-25 22:11:00,
2013-02-25 16:21:00,41.0,34.0,29.98,East,84,6.0,14.0,77,0.00,,,0.00,,2013-02-25 22:21:00,
2013-02-25 16:32:00,41.0,34.0,29.98,ENE,61,5.0,15.0,77,0.00,,,0.00,,2013-02-25 22:32:00,
2013-02-25 16:42:00,41.0,34.0,29.98,ENE,61,5.0,15.0,77,0.00,,,0.00,,2013-02-25 22:42:00,
2013-02-25 16:52:00,40.0,34.0,29.97,ENE,71,6.0,13.0,78,0.00,,,0.00,,2013-02-25 22:52:00,
2013-02-25 17:01:00,40.0,34.0,29.97,East,88,6.0,15.0,80,0.00,,,0.00,,2013-02-25 23:01:00,
2013-02-25 17:11:00,40.0,34.0,29.97,East,88,6.0,15.0,80,0.00,,,0.00,,2013-02-25 23:11:00,
2013-02-25 17:22:00,39.0,33.0,29.96,NE,40,5.0,12.0,80,0.00,,,0.00,,2013-02-25 23:22:00,
2013-02-25 17:31:00,39.0,33.0,29.96,NE,40,5.0,12.0,80,0.00,,,0.00,,2013-02-25 23:31:00,
2013-02-25 17:41:00,39.0,33.0,29.96,NE,40,5.0,12.0,80,0.00,,,0.00,,2013-02-25 23:41:00,
2013-02-25 17:52:00,39.0,33.0,29.95,ENE,68,5.0,13.0,80,0.00,,,0.00,,2013-02-25 23:52:00,
2013-02-25 18:01:00,38.0,33.0,29.95,ENE,73,6.0,14.0,82,0.00,,,0.00,,2013-02-26 00:01:00,
2013-02-25 18:12:00,38.0,33.0,29.95,ENE,73,6.0,14.0,82,0.00,,,0.00,,2013-02-26 00:12:00,
2013-02-25 18:22:00,38.0,33.0,29.95,ENE,71,6.0,13.0,83,0.00,,,0.00,,2013-02-26 00:22:00,
2013-02-25 18:32:00,37.0,32.0,29.95,ENE,62,5.0,13.0,83,0.00,,,0.00,,2013-02-26 00:32:00,
2013-02-25 18:42:00,37.0,32.0,29.95,ENE,62,5.0,13.0,83,0.00,,,0.00,,2013-02-26 00:42:00,
2013-02-25 18:51:00,37.0,33.0,29.94,NE,37,6.0,14.0,84,0.00,,,0.00,,2013-02-26 00:51:00,
2013-02-25 19:02:00,36.0,32.0,29.93,NNE,32,6.0,16.0,84,0.00,,,0.00,,2013-02-26 01:02:00,
2013-02-25 19:11:00,36.0,32.0,29.93,NNE,32,6.0,16.0,84,0.00,,,0.00,,2013-02-26 01:11:00,
2013-02-25 19:21:00,36.0,31.0,29.95,ESE,105,7.0,15.0,83,0.00,,,0.00,,2013-02-26 01:21:00,
2013-02-25 19:32:00,36.0,31.0,29.94,ENE,78,6.0,16.0,83,0.00,,,0.00,,2013-02-26 01:32:00,
2013-02-25 19:42:00,36.0,31.0,29.94,ENE,78,6.0,16.0,83,0.00,,,0.00,,2013-02-26 01:42:00,
2013-02-25 19:51:00,36.0,31.0,29.93,NNE,32,7.0,19.0,83,0.00,,,0.00,,2013-02-26 01:51:00,
2013-02-25 20:01:00,36.0,31.0,29.94,NE,35,5.0,15.0,82,0.00,,,0.00,,2013-02-26 02:01:00,
2013-02-25 20:11:00,36.0,31.0,29.94,NE,35,5.0,15.0,82,0.00,,,0.00,,2013-02-26 02:11:00,
2013-02-25 20:21:00,36.0,31.0,29.93,ENE,74,7.0,14.0,83,0.00,,,0.00,,2013-02-26 02:21:00,
2013-02-25 20:32:00,35.0,30.0,29.92,ENE,70,6.0,14.0,83,0.00,,,0.00,,2013-02-26 02:32:00,
2013-02-25 20:42:00,35.0,30.0,29.92,ENE,70,6.0,14.0,83,0.00,,,0.00,,2013-02-26 02:42:00,
2013-02-25 20:52:00,36.0,31.0,29.93,ENE,78,9.0,17.0,83,0.00,,,0.00,,2013-02-26 02:52:00,
2013-02-25 21:02:00,35.0,30.0,29.93,ENE,73,7.0,15.0,83,0.00,,,0.00,,2013-02-26 03:02:00,
2013-02-25 21:11:00,35.0,30.0,29.93,ENE,73,7.0,15.0,83,0.00,,,0.00,,2013-02-26 03:11:00,
2013-02-25 21:21:00,35.0,30.0,29.93,NE,42,7.0,16.0,82,0.00,,,0.00,,2013-02-26 03:21:00,
2013-02-25 21:32:00,35.0,30.0,29.94,NE,53,7.0,18.0,82,0.00,,,0.00,,2013-02-26 03:32:00,
2013-02-25 21:42:00,35.0,30.0,29.94,NE,53,7.0,18.0,82,0.00,,,0.00,,2013-02-26 03:42:00,
2013-02-25 21:52:00,35.0,30.0,29.93,ENE,61,6.0,16.0,81,0.00,,,0.00,,2013-02-26 03:52:00,
2013-02-25 22:01:00,36.0,31.0,29.92,NE,55,8.0,18.0,81,0.00,,,0.00,,2013-02-26 04:01:00,
2013-02-25 22:11:00,36.0,31.0,29.92,NE,55,8.0,18.0,81,0.00,,,0.00,,2013-02-26 04:11:00,
2013-02-25 22:21:00,36.0,30.0,29.93,NE,47,7.0,14.0,80,0.00,,,0.00,,2013-02-26 04:21:00,
2013-02-25 22:32:00,35.0,30.0,29.91,ENE,76,7.0,16.0,81,0.00,,,0.00,,2013-02-26 04:32:00,
2013-02-25 22:42:00,35.0,30.0,29.91,ENE,76,7.0,16.0,81,0.00,,,0.00,,2013-02-26 04:42:00,
2013-02-25 22:51:00,35.0,30.0,29.89,ENE,61,8.0,17.0,81,0.00,,,0.00,,2013-02-26 04:51:00,
2013-02-25 23:01:00,35.0,30.0,29.88,ENE,61,8.0,16.0,81,0.00,,,0.00,,2013-02-26 05:01:00,
2013-02-25 23:12:00,35.0,30.0,29.88,ENE,61,8.0,16.0,81,0.00,,,0.00,,2013-02-26 05:12:00,
2013-02-25 23:21:00,35.0,30.0,29.86,East,80,9.0,19.0,81,0.00,,,0.00,,2013-02-26 05:21:00,
2013-02-25 23:32:00,35.0,30.0,29.85,ENE,70,10.0,19.0,82,0.00,,,0.00,,2013-02-26 05:32:00,
2013-02-25 23:43:00,35.0,30.0,29.85,ENE,70,10.0,19.0,82,0.00,,,0.00,,2013-02-26 05:43:00,
2013-02-25 23:52:00,35.0,30.0,29.84,ENE,59,7.0,16.0,82,0.00,,,0.00,,2013-02-26 05:52:00,